Time;durP1;ratioP1;P1;durP2;ratioP2;P2;SDS_P1;SDS_P2;PMS_P1;PMS_P2;Temp;Humidity;BMP_temperature;BMP_pressure;BME280_temperature;BME280_humidity;BME280_pressure;Samples;Min_cycle;Max_cycle;Signal;HPM_P1;HPM_P2
2022/11/14 00:01:53;;;;;;;;;;;;;;;21.38;nan;96224.91;6124444;19;1867;-64
2022/11/14 00:03:56;;;;;;;;;;;;;;;21.37;nan;96225.94;6124927;19;2022;-65
2022/11/14 00:05:59;;;;;;;;;;;;;;;21.39;nan;96223.88;6124940;19;2024;-64
2022/11/14 00:08:05;;;;;;;;;;;;;;;21.35;nan;96227.13;6113776;19;2094;-64
2022/11/14 00:10:09;;;;;;;;;;;;;;;21.34;nan;96225.44;6111576;19;2059;-64
2022/11/14 00:12:13;;;;;;;;;;;;;;;21.32;nan;96219.47;6126808;19;1863;-64
2022/11/14 00:14:17;;;;;;;;;;;;;;;21.30;nan;96222.34;6127481;19;1682;-64
2022/11/14 00:16:20;;;;;;;;;;;;;;;21.30;nan;96226.84;6123466;19;1883;-65
2022/11/14 00:18:23;;;;;;;;;;;;;;;21.32;nan;96230.19;6123612;19;1879;-65
2022/11/14 00:20:27;;;;;;;;;;;;;;;21.31;nan;96221.31;6099834;19;1985;-64
2022/11/14 00:22:30;;;;;;;;;;;;;;;21.32;nan;96214.13;6123312;19;1927;-64
2022/11/14 00:24:36;;;;;;;;;;;;;;;21.34;nan;96220.09;6122944;19;1906;-64
2022/11/14 00:26:39;;;;;;;;;;;;;;;21.35;nan;96224.47;6124024;19;2100;-65
2022/11/14 00:28:42;;;;;;;;;;;;;;;21.35;nan;96225.28;6123539;19;1772;-64
2022/11/14 00:30:48;;;;;;;;;;;;;;;21.33;nan;96227.31;6112583;19;1861;-64
2022/11/14 00:32:51;;;;;;;;;;;;;;;21.31;nan;96233.84;6113461;19;2155;-65
2022/11/14 00:34:54;;;;;;;;;;;;;;;21.32;nan;96227.50;6126207;19;2235;-64
2022/11/14 00:36:57;;;;;;;;;;;;;;;21.32;nan;96222.16;6124165;19;2411;-65
2022/11/14 00:39:01;;;;;;;;;;;;;;;21.35;nan;96221.78;6123998;19;2010;-65
2022/11/14 00:41:07;;;;;;;;;;;;;;;21.35;nan;96224.47;6123728;19;1850;-65
2022/11/14 00:43:10;;;;;;;;;;;;;;;21.31;nan;96223.16;6103060;19;2079;-65
2022/11/14 00:45:14;;;;;;;;;;;;;;;21.31;nan;96229.31;6123168;19;1908;-64
2022/11/14 00:47:17;;;;;;;;;;;;;;;21.29;nan;96219.88;6122789;19;2028;-65
2022/11/14 00:49:20;;;;;;;;;;;;;;;21.30;nan;96221.50;6127181;19;2133;-65
2022/11/14 00:51:23;;;;;;;;;;;;;;;21.30;nan;96216.97;6122527;19;1680;-64
2022/11/14 00:53:27;;;;;;;;;;;;;;;21.34;nan;96218.28;6113566;19;2049;-65
2022/11/14 00:55:30;;;;;;;;;;;;;;;21.36;nan;96216.22;6111392;19;2113;-65
2022/11/14 00:57:36;;;;;;;;;;;;;;;21.33;nan;96216.59;6122458;19;2074;-65
2022/11/14 00:59:39;;;;;;;;;;;;;;;21.30;nan;96222.34;6122097;19;1990;-64
2022/11/14 01:01:43;;;;;;;;;;;;;;;21.31;nan;96220.47;6124743;19;2116;-64
2022/11/14 01:03:49;;;;;;;;;;;;;;;21.34;nan;96214.75;6126591;19;1962;-64
2022/11/14 01:05:53;;;;;;;;;;;;;;;21.33;nan;96221.13;6101088;19;1961;-64
2022/11/14 01:07:56;;;;;;;;;;;;;;;21.31;nan;96207.13;6126388;19;2087;-64
2022/11/14 01:09:59;;;;;;;;;;;;;;;21.31;nan;96212.47;6126343;19;2061;-64
2022/11/14 01:12:03;;;;;;;;;;;;;;;21.32;nan;96214.13;6126047;19;1735;-65
2022/11/14 01:14:10;;;;;;;;;;;;;;;21.31;nan;96210.63;6123565;19;1841;-64
2022/11/14 01:16:14;;;;;;;;;;;;;;;21.32;nan;96216.81;6111790;19;2132;-65
2022/11/14 01:18:19;;;;;;;;;;;;;;;21.29;nan;96210.00;6110669;19;1876;-65
2022/11/14 01:20:22;;;;;;;;;;;;;;;21.31;nan;96209.78;6126276;19;1908;-65
2022/11/14 01:22:25;;;;;;;;;;;;;;;21.30;nan;96210.81;6123240;19;1910;-65
2022/11/14 01:24:28;;;;;;;;;;;;;;;21.31;nan;96207.13;6123968;19;1930;-64
2022/11/14 01:26:32;;;;;;;;;;;;;;;21.29;nan;96201.16;6123754;19;2101;-65
2022/11/14 01:28:35;;;;;;;;;;;;;;;21.30;nan;96190.25;6102572;19;2088;-65
2022/11/14 01:30:41;;;;;;;;;;;;;;;21.31;nan;96189.22;6122716;19;2005;-65
2022/11/14 01:32:45;;;;;;;;;;;;;;;21.32;nan;96187.41;6120798;19;2041;-65
2022/11/14 01:34:48;;;;;;;;;;;;;;;21.31;nan;96188.41;6120391;19;2007;-64
2022/11/14 01:36:51;;;;;;;;;;;;;;;21.30;nan;96186.75;6119458;19;1854;-65
2022/11/14 01:38:55;;;;;;;;;;;;;;;21.31;nan;96180.38;6109624;19;2117;-64
2022/11/14 01:40:58;;;;;;;;;;;;;;;21.29;nan;96183.25;6109384;19;1999;-64
2022/11/14 01:43:23;;;;;;;;;;;;;;;21.31;nan;96175.84;6120903;19;2083;-64
2022/11/14 01:45:41;;;;;;;;;;;;;;;21.29;nan;96175.25;6120077;19;2090;-64
2022/11/14 01:47:47;;;;;;;;;;;;;;;21.32;nan;96179.38;6124397;19;2045;-64
2022/11/14 01:49:53;;;;;;;;;;;;;;;21.30;nan;96179.56;6122681;19;2191;-64
2022/11/14 01:52:01;;;;;;;;;;;;;;;21.31;nan;96175.84;6098793;19;2068;-64
2022/11/14 01:54:06;;;;;;;;;;;;;;;21.28;nan;96173.56;6120351;19;2047;-64
2022/11/14 01:56:11;;;;;;;;;;;;;;;21.30;nan;96170.72;6119732;19;1919;-64
2022/11/14 01:58:15;;;;;;;;;;;;;;;21.28;nan;96167.41;6120287;19;2135;-64
2022/11/14 02:00:18;;;;;;;;;;;;;;;21.29;nan;96171.75;6120054;19;1965;-64
2022/11/14 02:02:23;;;;;;;;;;;;;;;21.30;nan;96165.38;6107195;19;1913;-64
2022/11/14 02:04:32;;;;;;;;;;;;;;;21.31;nan;96164.34;6119279;19;1932;-64
2022/11/14 02:06:35;;;;;;;;;;;;;;;21.34;nan;96162.13;6118430;19;1127;-64
2022/11/14 02:08:39;;;;;;;;;;;;;;;21.35;nan;96160.28;6119066;19;2121;-64
2022/11/14 02:10:43;;;;;;;;;;;;;;;21.37;nan;96156.41;6122530;19;1965;-64
2022/11/14 02:12:47;;;;;;;;;;;;;;;21.33;nan;96160.47;6119454;19;1927;-64
2022/11/14 02:14:53;;;;;;;;;;;;;;;21.32;nan;96160.66;6100129;19;2190;-64
2022/11/14 02:16:57;;;;;;;;;;;;;;;21.29;nan;96163.72;6122175;19;1838;-64
2022/11/14 02:19:00;;;;;;;;;;;;;;;21.27;nan;96158.53;6121890;19;1866;-64
2022/11/14 02:21:06;;;;;;;;;;;;;;;21.26;nan;96164.09;6120946;19;1856;-64
2022/11/14 02:23:10;;;;;;;;;;;;;;;21.27;nan;96163.91;6120322;19;1833;-64
2022/11/14 02:25:14;;;;;;;;;;;;;;;21.33;nan;96162.31;6100781;19;1990;-64
2022/11/14 02:27:18;;;;;;;;;;;;;;;21.31;nan;96167.00;6121428;19;1945;-64
2022/11/14 02:29:21;;;;;;;;;;;;;;;21.29;nan;96171.75;6121602;19;2603;-64
2022/11/14 02:31:24;;;;;;;;;;;;;;;21.29;nan;96166.41;6123166;19;2038;-63
2022/11/14 02:33:28;;;;;;;;;;;;;;;21.29;nan;96164.53;6124517;19;1801;-64
2022/11/14 02:35:31;;;;;;;;;;;;;;;21.28;nan;96165.53;6122241;19;2113;-64
2022/11/14 02:37:37;;;;;;;;;;;;;;;21.29;nan;96163.72;6101355;19;1974;-64
2022/11/14 02:39:40;;;;;;;;;;;;;;;21.28;nan;96162.03;6120800;19;2264;-64
2022/11/14 02:41:44;;;;;;;;;;;;;;;21.28;nan;96160.19;6121244;19;2036;-64
2022/11/14 02:43:47;;;;;;;;;;;;;;;21.28;nan;96159.38;6120451;19;1826;-64
2022/11/14 02:45:50;;;;;;;;;;;;;;;21.29;nan;96158.38;6120721;19;2124;-60
2022/11/14 02:47:53;;;;;;;;;;;;;;;21.29;nan;96164.53;6099553;19;2031;-61
2022/11/14 02:49:57;;;;;;;;;;;;;;;21.26;nan;96161.44;6121416;19;1935;-61
2022/11/14 02:52:00;;;;;;;;;;;;;;;21.27;nan;96163.06;6120874;19;1971;-61
2022/11/14 02:54:06;;;;;;;;;;;;;;;21.26;nan;96161.44;6121999;19;2319;-61
2022/11/14 02:56:09;;;;;;;;;;;;;;;21.25;nan;96155.22;6123376;19;1963;-61
2022/11/14 02:58:12;;;;;;;;;;;;;;;21.22;nan;96158.28;6118438;19;2151;-63
2022/11/14 03:00:16;;;;;;;;;;;;;;;21.20;nan;96157.66;6101419;19;2113;-61
2022/11/14 03:02:20;;;;;;;;;;;;;;;21.19;nan;96148.78;6122270;19;1906;-62
2022/11/14 03:04:23;;;;;;;;;;;;;;;21.21;nan;96154.78;6121482;19;1721;-60
2022/11/14 03:06:26;;;;;;;;;;;;;;;21.21;nan;96151.28;6119974;19;2097;-62
2022/11/14 03:08:30;;;;;;;;;;;;;;;21.21;nan;96152.09;6122286;19;2106;-62
2022/11/14 03:10:36;;;;;;;;;;;;;;;21.23;nan;96154.59;6096597;19;1915;-63
2022/11/14 03:12:39;;;;;;;;;;;;;;;21.25;nan;96155.22;6122206;19;1960;-61
2022/11/14 03:14:42;;;;;;;;;;;;;;;21.27;nan;96158.53;6120401;19;1979;-61
2022/11/14 03:16:46;;;;;;;;;;;;;;;21.26;nan;96153.41;6121181;19;1922;-60
2022/11/14 03:18:49;;;;;;;;;;;;;;;21.27;nan;96153.19;6120322;19;1914;-61
2022/11/14 03:20:52;;;;;;;;;;;;;;;21.26;nan;96156.91;6114772;19;1925;-61
2022/11/14 03:22:55;;;;;;;;;;;;;;;21.24;nan;96153.59;6105933;19;2032;-61
2022/11/14 03:24:59;;;;;;;;;;;;;;;21.22;nan;96159.09;6120376;19;2055;-61
2022/11/14 03:27:05;;;;;;;;;;;;;;;21.26;nan;96150.72;6121102;19;1820;-61
2022/11/14 03:29:08;;;;;;;;;;;;;;;21.28;nan;96151.34;6119457;19;2086;-61
2022/11/14 03:31:12;;;;;;;;;;;;;;;21.30;nan;96157.34;6121722;19;2119;-60
2022/11/14 03:33:16;;;;;;;;;;;;;;;21.29;nan;96164.53;6098828;19;1989;-62
2022/11/14 03:35:19;;;;;;;;;;;;;;;21.29;nan;96163.72;6117913;19;2456;-61
2022/11/14 03:37:22;;;;;;;;;;;;;;;21.28;nan;96162.88;6121301;19;2058;-61
2022/11/14 03:39:26;;;;;;;;;;;;;;;21.28;nan;96154.03;6119084;19;2112;-61
2022/11/14 03:41:29;;;;;;;;;;;;;;;21.27;nan;96157.72;6119067;19;2014;-63
2022/11/14 03:43:35;;;;;;;;;;;;;;;21.26;nan;96150.72;6115986;19;1917;-61
2022/11/14 03:45:39;;;;;;;;;;;;;;;21.41;nan;96148.84;6106791;19;2102;-63
2022/11/14 03:47:42;;;;;;;;;;;;;;;21.49;nan;96145.22;6121643;19;2084;-63
2022/11/14 03:49:46;;;;;;;;;;;;;;;21.51;nan;96146.66;6118857;19;3012;-62
2022/11/14 03:51:49;;;;;;;;;;;;;;;21.54;nan;96148.97;6117385;19;2119;-61
2022/11/14 03:53:52;;;;;;;;;;;;;;;21.63;nan;96153.19;6122440;19;1833;-62
2022/11/14 03:55:56;;;;;;;;;;;;;;;21.65;nan;96147.63;6099980;19;1868;-63
2022/11/14 03:57:59;;;;;;;;;;;;;;;21.52;nan;96144.84;6117280;19;1869;-66
2022/11/14 05:59:26;;;;;;;;;;;;;;;21.15;37.85;96154.69;6146510;19;1402;-61
2022/11/14 06:01:29;;;;;;;;;;;;;;;21.21;37.95;96154.78;6120232;19;1388;-61
2022/11/14 06:03:34;;;;;;;;;;;;;;;21.29;38.45;96155.69;6148132;19;2217;-59
2022/11/14 06:05:38;;;;;;;;;;;;;;;21.35;38.53;96160.28;6148492;19;1018;-59
2022/11/14 06:07:41;;;;;;;;;;;;;;;21.35;38.58;96153.09;6148448;19;1112;-59
2022/11/14 06:09:44;;;;;;;;;;;;;;;21.37;38.67;96160.91;6146317;19;1608;-61
2022/11/14 06:11:48;;;;;;;;;;;;;;;21.40;38.37;96168.59;6145262;19;985;-60
2022/11/14 06:13:51;;;;;;;;;;;;;;;21.42;38.59;96166.53;6122558;19;1232;-60
2022/11/14 06:15:59;;;;;;;;;;;;;;;21.44;38.58;96164.50;6146681;19;1036;-59
2022/11/14 06:18:03;;;;;;;;;;;;;;;21.50;38.67;96166.41;6145715;19;1847;-61
2022/11/14 06:20:07;;;;;;;;;;;;;;;21.56;38.13;96171.00;6148557;19;1020;-61
2022/11/14 06:22:10;;;;;;;;;;;;;;;21.55;38.72;96172.03;6148664;19;1067;-63
2022/11/14 06:24:13;;;;;;;;;;;;;;;21.50;38.89;96179.78;6120553;19;1401;-64
2022/11/14 06:26:21;;;;;;;;;;;;;;;21.47;38.84;96182.84;6146668;19;1124;-60
2022/11/14 06:28:24;;;;;;;;;;;;;;;21.46;39.27;96178.50;6148462;19;961;-60
2022/11/14 06:30:27;;;;;;;;;;;;;;;21.44;39.09;96175.19;6147776;19;1056;-60
2022/11/14 06:32:33;;;;;;;;;;;;;;;21.47;38.78;96171.31;6148309;19;1618;-60
2022/11/14 06:34:37;;;;;;;;;;;;;;;21.47;38.70;96174.00;6145117;19;1140;-62
2022/11/14 06:36:40;;;;;;;;;;;;;;;21.49;38.76;96171.97;6119296;19;1389;-59
2022/11/14 06:38:44;;;;;;;;;;;;;;;21.36;38.66;96172.63;6145576;19;1851;-60
2022/11/14 06:40:47;;;;;;;;;;;;;;;21.22;38.76;96163.63;6144097;19;1064;-62
2022/11/14 06:42:50;;;;;;;;;;;;;;;21.22;38.33;96166.28;6145760;19;1061;-59
2022/11/14 06:44:54;;;;;;;;;;;;;;;21.16;38.41;96167.84;6148362;19;1025;-60
2022/11/14 06:46:58;;;;;;;;;;;;;;;21.14;38.36;96161.88;6121423;19;1404;-59
2022/11/14 06:49:03;;;;;;;;;;;;;;;21.12;38.24;96163.06;6144562;19;1865;-63
2022/11/14 06:51:07;;;;;;;;;;;;;;;21.26;38.52;96162.25;6144415;19;1054;-61
2022/11/14 06:53:11;;;;;;;;;;;;;;;21.33;38.54;96167.66;6145013;19;1129;-61
2022/11/14 06:55:14;;;;;;;;;;;;;;;21.36;38.62;96175.31;6144613;19;1044;-61
2022/11/14 06:57:17;;;;;;;;;;;;;;;21.39;38.62;96167.72;6147155;19;1033;-62
2022/11/14 06:59:20;;;;;;;;;;;;;;;21.42;38.39;96161.19;6118339;19;1861;-61
2022/11/14 07:01:25;;;;;;;;;;;;;;;21.41;38.69;96149.66;6146686;19;1380;-61
2022/11/14 07:03:28;;;;;;;;;;;;;;;21.41;38.78;96149.66;6146329;19;1024;-61
2022/11/14 07:05:34;;;;;;;;;;;;;;;21.39;39.28;96159.72;6147125;19;1040;-60
2022/11/14 07:07:37;;;;;;;;;;;;;;;21.41;39.14;96165.69;6147522;19;969;-62
2022/11/14 07:09:40;;;;;;;;;;;;;;;21.44;38.91;96159.97;6109431;19;1383;-59
2022/11/14 07:11:45;;;;;;;;;;;;;;;21.49;39.07;96161.28;6119833;19;1083;-59
2022/11/14 07:13:48;;;;;;;;;;;;;;;21.51;39.33;96152.00;6123269;19;1029;-60
2022/11/14 07:15:53;;;;;;;;;;;;;;;21.47;39.53;96158.78;6122881;19;1058;-60
2022/11/14 07:17:56;;;;;;;;;;;;;;;21.39;39.34;96159.72;6122199;19;1838;-62
2022/11/14 07:19:59;;;;;;;;;;;;;;;21.31;39.43;96153.66;6122868;19;1013;-61
2022/11/14 07:22:05;;;;;;;;;;;;;;;21.26;39.15;96156.09;6096434;19;1132;-60
2022/11/14 07:24:09;;;;;;;;;;;;;;;21.23;39.24;96151.94;6122821;19;1013;-60
2022/11/14 07:26:12;;;;;;;;;;;;;;;21.20;39.39;96155.00;6121617;19;1335;-61
2022/11/14 07:28:16;;;;;;;;;;;;;;;21.16;38.93;96153.66;6122680;19;1064;-60
2022/11/14 07:30:19;;;;;;;;;;;;;;;21.16;39.29;96156.31;6122452;19;973;-60
2022/11/14 07:32:23;;;;;;;;;;;;;;;21.13;39.07;96152.19;6096180;19;1150;-60
2022/11/14 07:34:26;;;;;;;;;;;;;;;21.14;39.20;96150.34;6122118;19;1309;-59
2022/11/14 07:36:30;;;;;;;;;;;;;;;21.14;38.94;96151.19;6120296;19;1129;-60
2022/11/14 07:38:36;;;;;;;;;;;;;;;21.13;39.08;96152.19;6121489;19;1837;-64
2022/11/14 07:40:40;;;;;;;;;;;;;;;21.13;39.08;96146.84;6119252;19;1402;-60
2022/11/14 07:42:43;;;;;;;;;;;;;;;21.13;39.10;96148.69;6122040;19;1633;-60
2022/11/14 07:44:46;;;;;;;;;;;;;;;21.13;38.81;96136.16;6096191;19;1241;-59
2022/11/14 07:46:50;;;;;;;;;;;;;;;21.14;38.88;96143.16;6119299;19;1073;-60
2022/11/14 07:48:54;;;;;;;;;;;;;;;21.12;38.66;96139.84;6120508;19;1025;-61
2022/11/14 07:50:59;;;;;;;;;;;;;;;21.14;39.03;96145.00;6121601;19;1057;-60
2022/11/14 07:53:03;;;;;;;;;;;;;;;21.11;38.73;96143.50;6121751;19;1061;-59
2022/11/14 07:55:09;;;;;;;;;;;;;;;21.13;38.68;96140.66;6095354;19;1371;-60
2022/11/14 07:57:12;;;;;;;;;;;;;;;21.14;38.72;96143.16;6119776;19;1461;-60
2022/11/14 07:59:16;;;;;;;;;;;;;;;21.21;38.32;96144.09;6119979;19;1829;-62
2022/11/14 08:01:19;;;;;;;;;;;;;;;21.29;39.05;96145.84;6121337;19;1295;-61
2022/11/14 08:03:22;;;;;;;;;;;;;;;21.30;38.87;96144.81;6118989;19;1048;-60
2022/11/14 08:05:25;;;;;;;;;;;;;;;21.30;38.93;96142.13;6121773;19;1602;-61
2022/11/14 08:07:29;;;;;;;;;;;;;;;21.34;39.04;96139.91;6095777;19;1449;-61
2022/11/14 08:09:32;;;;;;;;;;;;;;;21.34;39.20;96135.41;6120495;19;950;-62
2022/11/14 08:11:50;;;;;;;;;;;;;;;21.30;39.38;96136.78;6120324;19;1263;-61
2022/11/14 08:13:54;;;;;;;;;;;;;;;21.35;39.00;96134.38;6121276;19;1040;-62
2022/11/14 08:15:58;;;;;;;;;;;;;;;21.36;39.45;96143.22;6121419;19;1492;-62
2022/11/14 08:18:02;;;;;;;;;;;;;;;21.37;39.09;96134.16;6094577;19;1790;-60
2022/11/14 08:20:06;;;;;;;;;;;;;;;21.43;39.47;96136.13;6119095;19;1865;-60
2022/11/14 08:22:09;;;;;;;;;;;;;;;21.42;39.49;96137.94;6118769;19;1054;-60
2022/11/14 08:24:13;;;;;;;;;;;;;;;21.39;39.36;96140.16;6119789;19;1132;-60
2022/11/14 08:26:16;;;;;;;;;;;;;;;21.41;39.67;96138.97;6121023;19;958;-60
2022/11/14 08:28:22;;;;;;;;;;;;;;;21.43;39.17;96136.94;6114234;19;1037;-61
2022/11/14 08:30:25;;;;;;;;;;;;;;;21.43;39.70;96141.47;6104437;19;1180;-61
2022/11/14 08:32:28;;;;;;;;;;;;;;;21.46;39.64;96135.72;6119658;19;1140;-62
2022/11/14 08:34:32;;;;;;;;;;;;;;;21.47;39.39;96129.34;6118914;19;1889;-60
2022/11/14 08:36:35;;;;;;;;;;;;;;;21.49;39.26;96130.00;6118911;19;1953;-60
2022/11/14 08:38:38;;;;;;;;;;;;;;;21.48;39.47;96128.31;6119709;19;1845;-60
2022/11/14 08:40:42;;;;;;;;;;;;;;;21.45;39.91;96128.72;6092618;19;1477;-60
2022/11/14 08:42:45;;;;;;;;;;;;;;;21.47;39.91;96132.03;6118405;19;1346;-60
2022/11/14 08:44:51;;;;;;;;;;;;;;;21.46;39.66;96130.38;6118915;19;1058;-59
2022/11/14 08:46:54;;;;;;;;;;;;;;;21.45;39.57;96134.91;6118246;19;1136;-61
2022/11/14 08:48:58;;;;;;;;;;;;;;;21.45;39.99;96134.91;6120684;19;1040;-61
2022/11/14 08:51:04;;;;;;;;;;;;;;;21.19;39.17;96130.06;6114368;19;1054;-61
2022/11/14 08:53:07;;;;;;;;;;;;;;;21.16;39.74;96130.41;6105482;19;1430;-60
2022/11/14 08:55:10;;;;;;;;;;;;;;;21.18;39.51;96123.09;6119686;19;1038;-59
2022/11/14 08:57:14;;;;;;;;;;;;;;;21.17;39.94;96121.44;6120498;19;973;-59
2022/11/14 08:59:17;;;;;;;;;;;;;;;21.18;40.09;96116.91;6118883;19;1838;-61
2022/11/14 09:01:23;;;;;;;;;;;;;;;21.17;39.95;96113.41;6119511;19;1293;-58
2022/11/14 09:03:26;;;;;;;;;;;;;;;21.18;39.70;96107.03;6092233;19;1369;-60
2022/11/14 09:05:30;;;;;;;;;;;;;;;21.24;39.87;96100.13;6119812;19;1529;-59
2022/11/14 09:07:33;;;;;;;;;;;;;;;21.29;39.92;96108.41;6118506;19;1948;-63
2022/11/14 09:09:37;;;;;;;;;;;;;;;21.32;39.77;96102.69;6117099;19;1089;-59
2022/11/14 09:11:40;;;;;;;;;;;;;;;21.37;40.05;96102.09;6118615;19;987;-59
2022/11/14 09:13:43;;;;;;;;;;;;;;;21.39;39.60;96102.72;6113659;19;1025;-61
2022/11/14 09:15:47;;;;;;;;;;;;;;;21.37;39.77;96094.06;6101834;19;1387;-60
2022/11/14 09:17:54;;;;;;;;;;;;;;;21.27;39.39;96090.91;6118655;19;978;-60
2022/11/14 09:19:57;;;;;;;;;;;;;;;21.19;38.17;96086.50;6118116;19;1837;-60
2022/11/14 09:22:00;;;;;;;;;;;;;;;21.17;38.17;96081.34;6117882;19;1870;-59
2022/11/14 09:24:04;;;;;;;;;;;;;;;21.16;38.70;96079.63;6118357;19;1526;-61
2022/11/14 09:26:07;;;;;;;;;;;;;;;21.15;38.85;96080.66;6094011;19;1163;-60
2022/11/14 09:28:11;;;;;;;;;;;;;;;21.13;38.91;96077.34;6119433;19;1182;-60
2022/11/14 09:30:15;;;;;;;;;;;;;;;21.14;39.15;96076.34;6119101;19;1025;-64
2022/11/14 09:32:18;;;;;;;;;;;;;;;21.14;39.10;96073.69;6117117;19;1033;-59
2022/11/14 09:34:24;;;;;;;;;;;;;;;21.13;38.75;96069.31;6119110;19;982;-59
2022/11/14 09:36:27;;;;;;;;;;;;;;;21.18;39.15;96074.97;6113923;19;1278;-61
2022/11/14 09:38:31;;;;;;;;;;;;;;;21.29;38.94;96070.16;6101172;19;1423;-61
2022/11/14 09:40:43;;;;;;;;;;;;;;;21.35;39.24;96064.03;6116979;19;1858;-59
2022/11/14 09:42:56;;;;;;;;;;;;;;;21.36;39.36;96071.03;6117758;19;1001;-60
2022/11/14 09:45:01;;;;;;;;;;;;;;;21.37;39.10;96064.66;6117603;19;1052;-60
2022/11/14 09:47:06;;;;;;;;;;;;;;;21.40;39.21;96067.81;6116869;19;1093;-59
2022/11/14 09:49:13;;;;;;;;;;;;;;;21.42;39.81;96065.75;6092987;19;1385;-59
2022/11/14 09:51:21;;;;;;;;;;;;;;;21.35;39.41;96066.72;6117212;19;1040;-60
2022/11/14 09:53:30;;;;;;;;;;;;;;;21.31;39.27;96068.09;6118545;19;1080;-59
2022/11/14 09:55:35;;;;;;;;;;;;;;;21.35;39.35;96061.38;6118485;19;1152;-60
2022/11/14 09:57:38;;;;;;;;;;;;;;;21.37;39.49;96054.81;6117838;19;1052;-60
2022/11/14 09:59:42;;;;;;;;;;;;;;;21.40;39.56;96056.28;6104444;19;1849;-60
2022/11/14 10:01:51;;;;;;;;;;;;;;;21.47;39.64;96048.31;6103517;19;1407;-65
2022/11/14 10:04:00;;;;;;;;;;;;;;;21.47;39.58;96053.66;6118806;19;1025;-64
2022/11/14 10:06:09;;;;;;;;;;;;;;;21.45;39.62;96045.81;6118942;19;993;-65
2022/11/14 10:08:21;;;;;;;;;;;;;;;21.45;39.32;96038.66;6118341;19;962;-64
2022/11/14 10:10:32;;;;;;;;;;;;;;;21.46;39.90;96039.47;6118325;19;1300;-64
2022/11/14 10:12:40;;;;;;;;;;;;;;;21.49;39.40;96033.72;6102220;19;1185;-64
2022/11/14 10:14:52;;;;;;;;;;;;;;;21.50;39.77;96029.22;6117871;19;1068;-63
2022/11/14 10:17:00;;;;;;;;;;;;;;;21.49;39.51;96031.06;6118445;19;1049;-62
2022/11/14 10:19:15;;;;;;;;;;;;;;;21.46;39.81;96023.44;6118593;19;1847;-65
2022/11/14 10:21:27;;;;;;;;;;;;;;;21.51;39.51;96026.31;6121480;19;1041;-61
2022/11/14 10:23:41;;;;;;;;;;;;;;;21.52;39.61;96011.13;6091512;19;1782;-59
2022/11/14 10:25:50;;;;;;;;;;;;;;;21.54;39.80;96009.91;6116439;19;991;-60
2022/11/14 10:28:04;;;;;;;;;;;;;;;21.58;39.90;96005.81;6118540;19;1042;-62
2022/11/14 10:30:11;;;;;;;;;;;;;;;21.57;40.01;96009.53;6117090;19;1069;-61
2022/11/14 10:32:23;;;;;;;;;;;;;;;21.58;39.66;96002.31;6116364;19;1137;-61
2022/11/14 10:34:26;;;;;;;;;;;;;;;;;;6116309;19;1037;-60
2022/11/14 10:36:37;;;;;;;;;;;;;;;21.57;40.07;95988.13;6116768;19;1081;-61
2022/11/14 10:38:45;;;;;;;;;;;;;;;21.54;39.92;95991.19;6090261;19;1356;-60
2022/11/14 10:40:51;;;;;;;;;;;;;;;21.51;40.20;95983.53;6115966;19;1893;-59
2022/11/14 10:42:57;;;;;;;;;;;;;;;21.51;40.23;95986.22;6116672;19;1073;-60
2022/11/14 10:45:05;;;;;;;;;;;;;;;21.51;40.49;95978.19;6119283;19;1216;-60
2022/11/14 10:47:11;;;;;;;;;;;;;;;21.49;40.25;95974.91;6124502;19;989;-60
2022/11/14 10:49:17;;;;;;;;;;;;;;;21.48;40.10;95973.22;6111665;19;1268;-62
2022/11/14 10:51:24;;;;;;;;;;;;;;;21.45;40.27;95976.28;6108219;19;1430;-59
2022/11/14 10:53:30;;;;;;;;;;;;;;;21.44;40.68;95966.63;6122865;19;954;-59
2022/11/14 10:55:36;;;;;;;;;;;;;;;21.45;40.58;95969.13;6123763;19;1053;-62
2022/11/14 10:57:40;;;;;;;;;;;;;;;21.53;40.43;95960.09;6123797;19;1010;-62
2022/11/14 10:59:43;;;;;;;;;;;;;;;21.60;40.46;95960.19;6120103;19;1863;-62
2022/11/14 11:01:54;;;;;;;;;;;;;;;21.59;40.56;95956.66;6095547;19;1348;-60
2022/11/14 11:03:58;;;;;;;;;;;;;;;21.53;40.91;95948.59;6123199;19;1141;-60
2022/11/14 11:06:01;;;;;;;;;;;;;;;21.52;40.81;95949.63;6123108;19;970;-60
2022/11/14 11:12:55;;;;;;;;;;;;;;;21.53;40.67;95941.38;6092328;19;1665;-59
2022/11/14 11:15:14;;;;;;;;;;;;;;;21.52;40.75;95941.59;6123032;19;1029;-58
2022/11/14 11:17:20;;;;;;;;;;;;;;;21.50;40.84;95936.44;6123696;19;1025;-59
2022/11/14 11:19:25;;;;;;;;;;;;;;;21.45;41.23;95942.38;6121167;19;1837;-58
2022/11/14 11:21:29;;;;;;;;;;;;;;;21.44;41.17;95945.25;6122681;19;1062;-59
2022/11/14 11:23:32;;;;;;;;;;;;;;;21.44;41.21;95945.25;6110500;19;1387;-59
2022/11/14 11:25:35;;;;;;;;;;;;;;;21.45;41.27;95941.53;6108187;19;1344;-60
2022/11/14 11:27:39;;;;;;;;;;;;;;;21.45;41.10;95937.03;6121482;19;990;-59
2022/11/14 11:29:45;;;;;;;;;;;;;;;21.45;41.16;95930.84;6121618;19;1275;-58
2022/11/14 11:31:51;;;;;;;;;;;;;;;21.47;41.21;95931.47;6123037;19;1964;-58
2022/11/14 11:33:55;;;;;;;;;;;;;;;21.47;41.06;95934.16;6120737;19;1124;-59
2022/11/14 11:35:59;;;;;;;;;;;;;;;21.47;41.38;95928.81;6096639;19;1173;-58
2022/11/14 11:38:04;;;;;;;;;;;;;;;21.47;41.10;95926.13;6122166;19;1275;-60
2022/11/14 11:40:08;;;;;;;;;;;;;;;21.47;41.27;95923.47;6120603;19;1846;-59
2022/11/14 11:42:16;;;;;;;;;;;;;;;21.47;41.15;95925.31;6122760;19;1054;-59
2022/11/14 11:44:20;;;;;;;;;;;;;;;21.49;41.45;95925.94;6120092;19;1230;-59
2022/11/14 11:46:30;;;;;;;;;;;;;;;21.51;41.06;95929.22;6107719;19;2172;-59
2022/11/14 11:48:38;;;;;;;;;;;;;;;21.52;41.54;95918.34;6116291;19;1444;-60
2022/11/14 11:50:42;;;;;;;;;;;;;;;21.52;41.33;95915.69;6120123;19;1054;-61
2022/11/14 11:52:50;;;;;;;;;;;;;;;21.51;41.59;95916.69;6119421;19;1025;-59
2022/11/14 11:54:59;;;;;;;;;;;;;;;21.51;41.28;95908.66;6122408;19;1594;-65
2022/11/14 11:57:11;;;;;;;;;;;;;;;21.55;41.09;95915.28;6119750;19;1877;-65
2022/11/14 11:59:21;;;;;;;;;;;;;;;21.62;41.04;95905.44;6099168;19;1333;-64
2022/11/14 12:01:27;;;;;;;;;;;;;;;21.62;41.18;95907.28;6120464;19;1888;-65
2022/11/14 12:03:31;;;;;;;;;;;;;;;21.58;41.24;95898.84;6122230;19;994;-64
2022/11/14 12:05:40;;;;;;;;;;;;;;;21.59;41.18;95897.81;6121687;19;1026;-63
2022/11/14 12:07:48;;;;;;;;;;;;;;;21.58;41.56;95898.84;6118545;19;1056;-62
2022/11/14 12:09:52;;;;;;;;;;;;;;;21.58;41.48;95896.16;6093530;19;1417;-62
2022/11/14 12:11:57;;;;;;;;;;;;;;;21.57;41.23;95896.34;6121404;19;1365;-63
2022/11/14 12:14:11;;;;;;;;;;;;;;;21.56;41.26;95890.19;6121397;19;1010;-59
2022/11/14 12:16:24;;;;;;;;;;;;;;;21.52;41.72;95888.13;6121773;19;962;-59
2022/11/14 12:18:42;;;;;;;;;;;;;;;21.41;40.87;95892.16;6119770;19;1140;-59
2022/11/14 12:21:01;;;;;;;;;;;;;;;21.34;40.70;95880.56;6093088;19;1853;-58
2022/11/14 12:23:19;;;;;;;;;;;;;;;21.29;40.54;95878.50;6121328;19;1014;-58
2022/11/14 12:25:41;;;;;;;;;;;;;;;21.34;40.77;95880.56;6120894;19;1152;-62
2022/11/14 12:27:51;;;;;;;;;;;;;;;21.51;40.60;95873.91;6119360;19;1041;-58
2022/11/14 12:30:06;;;;;;;;;;;;;;;21.50;40.83;95861.56;6120536;19;1131;-59
2022/11/14 12:32:15;;;;;;;;;;;;;;;21.51;40.48;95863.19;6095332;19;1653;-58
2022/11/14 12:34:24;;;;;;;;;;;;;;;21.49;40.71;95872.47;6118108;19;1446;-59
2022/11/14 12:36:30;;;;;;;;;;;;;;;21.51;40.75;95870.41;6118370;19;1247;-60
2022/11/14 12:38:36;;;;;;;;;;;;;;;21.40;40.51;95863.78;6119154;19;1279;-63
2022/11/14 12:40:41;;;;;;;;;;;;;;;21.51;40.39;95871.22;6119634;19;1833;-62
2022/11/14 12:42:48;;;;;;;;;;;;;;;21.51;40.72;95865.88;6109735;19;1545;-64
2022/11/14 12:44:51;;;;;;;;;;;;;;;21.52;40.76;95856.84;6106254;19;1316;-62
2022/11/14 12:47:09;;;;;;;;;;;;;;;21.54;40.51;95860.16;6120095;19;1132;-61
2022/11/14 12:49:27;;;;;;;;;;;;;;;21.54;40.49;95857.50;6119396;19;1058;-61
2022/11/14 12:51:51;;;;;;;;;;;;;;;21.55;40.75;95856.44;6119448;19;1059;-62
2022/11/14 12:53:58;;;;;;;;;;;;;;;21.58;40.50;95860.59;6119505;19;1071;-62
2022/11/14 12:56:22;;;;;;;;;;;;;;;21.61;40.79;95854.84;6099161;19;1537;-61
2022/11/14 12:58:34;;;;;;;;;;;;;;;21.59;40.52;95849.69;6117540;19;1052;-61
2022/11/14 13:00:39;;;;;;;;;;;;;;;21.63;40.65;95855.47;6119467;19;1849;-59
2022/11/14 13:02:52;;;;;;;;;;;;;;;21.66;41.05;95844.38;6118899;19;1360;-59
2022/11/14 13:05:01;;;;;;;;;;;;;;;21.67;40.73;95848.69;6118664;19;974;-60
2022/11/14 13:07:18;;;;;;;;;;;;;;;21.73;41.10;95847.06;6093084;19;1195;-59
2022/11/14 13:09:42;;;;;;;;;;;;;;;21.74;40.69;95848.72;6119696;19;1046;-58
2022/11/14 13:23:51;;;;;;;;;;;;;;;21.70;40.91;95831.44;6119694;19;881;-58
2022/11/14 13:26:09;;;;;;;;;;;;;;;21.67;41.11;95827.28;6119400;19;1046;-58